Liberty, Washington
Current Conditions -  °F | °C
As of 5:53 PM on Friday 24 Oct 2014 (Local Time) from KELN Reporting Station
Light Rain Light Rain  
Wind Chill: 46°   Ceiling: 5000
Heat Index: 49°   Visibility: 8mi
Dew Point: 42°   Wind: 7mph
Humidity: 77%   Direction: 130°SE
Pressure: 29.98"   Gusts: NA
Location:  47.3367°N, 121.023°W
Report Text: KELN 250053Z AUTO 13006KT 8SM -RA OVC050 09/06 A2998 RMK AO2 RAB2354 SLP160 P0001 T00940056
Loading
Personal Weather Stations






























Interactive Weather Map
Tropical Storm Tracking
New forecast layout! Learn more

10-Day Weather Forecast

Advertisements
Track Severe Weather on mobile